Time;durP1;ratioP1;P1;durP2;ratioP2;P2;SDS_P1;SDS_P2;PMS_P1;PMS_P2;Temp;Humidity;BMP_temperature;BMP_pressure;BME280_temperature;BME280_humidity;BME280_pressure;Samples;Min_cycle;Max_cycle;Signal;HPM_P1;HPM_P2
2023/05/12 00:02:17;;;;;;;3.00;2.72;;;;;;;10.73;72.47;95285.66;5039700;28;20301;-63
2023/05/12 00:04:44;;;;;;;3.03;2.83;;;;;;;10.67;71.62;95283.28;5039916;28;20302;-66
2023/05/12 00:07:12;;;;;;;3.38;3.05;;;;;;;10.59;72.37;95288.63;5039579;28;20308;-67
2023/05/12 00:09:40;;;;;;;4.38;2.72;;;;;;;10.53;71.78;95287.09;5039400;28;20293;-66
2023/05/12 00:12:07;;;;;;;3.10;2.90;;;;;;;10.57;72.38;95285.28;5039576;28;20344;-67
2023/05/12 00:14:35;;;;;;;4.13;2.83;;;;;;;10.65;71.99;95280.78;5039810;28;20293;-65
2023/05/12 00:17:03;;;;;;;2.95;2.75;;;;;;;10.67;71.07;95281.56;5040115;28;20292;-66
2023/05/12 00:19:30;;;;;;;2.92;2.72;;;;;;;10.54;71.00;95281.13;5039455;28;20283;-66
2023/05/12 00:21:56;;;;;;;3.63;2.30;;;;;;;10.54;71.52;95283.66;5038304;28;20676;-66
2023/05/12 00:24:24;;;;;;;2.58;2.38;;;;;;;10.47;71.21;95283.88;5041502;28;20266;-66
2023/05/12 00:26:51;;;;;;;2.33;2.22;;;;;;;10.56;71.03;95289.53;5044785;28;20206;-68
2023/05/12 00:29:18;;;;;;;6.03;2.80;;;;;;;10.51;70.96;95288.00;5043197;28;20264;-66
2023/05/12 00:31:45;;;;;;;2.50;2.40;;;;;;;10.38;71.26;95287.53;5043840;28;20744;-66
2023/05/12 00:34:11;;;;;;;3.25;2.15;;;;;;;10.39;71.39;95283.28;5043110;28;20308;-66
2023/05/12 00:36:38;;;;;;;2.85;2.50;;;;;;;10.45;71.54;95291.56;5043601;28;20313;-65
2023/05/12 00:39:05;;;;;;;8.95;2.63;;;;;;;10.36;71.90;95285.94;5043586;28;20238;-63
2023/05/12 00:41:33;;;;;;;3.22;2.85;;;;;;;10.29;72.51;95284.44;5042953;28;20289;-64
2023/05/12 00:44:00;;;;;;;3.17;2.25;;;;;;;10.12;72.84;95290.81;5041565;28;20338;-65
2023/05/12 00:46:27;;;;;;;7.18;2.88;;;;;;;10.25;73.45;95293.00;5041447;28;20589;-66
2023/05/12 00:48:54;;;;;;;2.90;2.70;;;;;;;10.14;73.84;95293.28;5041562;28;20292;-65
2023/05/12 00:51:20;;;;;;;4.60;2.85;;;;;;;10.22;74.29;95292.22;5042333;28;20785;-63
2023/05/12 00:53:48;;;;;;;2.83;2.40;;;;;;;10.22;74.15;95291.38;5041667;28;20234;-65
2023/05/12 00:56:16;;;;;;;5.63;3.05;;;;;;;10.13;74.45;95300.09;5042253;28;20230;-65
2023/05/12 00:58:45;;;;;;;2.72;2.55;;;;;;;10.00;75.21;95297.91;5042963;28;20233;-64
2023/05/12 01:01:12;;;;;;;3.17;2.88;;;;;;;9.87;75.78;95305.03;5044580;28;20244;-65
2023/05/12 01:03:38;;;;;;;3.25;3.05;;;;;;;9.88;76.46;95297.38;5042999;28;20324;-66
2023/05/12 01:06:12;;;;;;;5.43;2.20;;;;;;;9.78;76.79;95301.03;5043187;28;20339;-64
2023/05/12 01:08:40;;;;;;;2.35;2.25;;;;;;;9.79;76.94;95312.03;5043327;28;20297;-66
2023/05/12 01:11:06;;;;;;;4.45;2.65;;;;;;;9.75;77.64;95301.09;5043358;28;20344;-65
2023/05/12 01:13:33;;;;;;;4.38;3.10;;;;;;;9.75;77.71;95306.19;5042722;28;21442;-64
2023/05/12 01:16:02;;;;;;;3.00;2.80;;;;;;;9.74;78.78;95303.69;5043235;28;20875;-67
2023/05/12 01:18:30;;;;;;;3.10;2.80;;;;;;;9.61;79.53;95307.44;5044563;28;20344;-65
2023/05/12 01:20:57;;;;;;;3.25;3.03;;;;;;;9.52;79.77;95306.78;5044266;28;21695;-66
2023/05/12 01:23:31;;;;;;;3.05;2.75;;;;;;;9.49;79.68;95306.88;5042956;28;20302;-63
2023/05/12 01:26:05;;;;;;;3.30;3.10;;;;;;;9.49;81.40;95306.88;5042640;28;20288;-66
2023/05/12 01:28:32;;;;;;;3.13;2.92;;;;;;;9.40;81.61;95312.16;5042970;28;20285;-65
2023/05/12 01:31:00;;;;;;;3.60;2.90;;;;;;;9.40;82.10;95303.75;5043361;28;20294;-65
2023/05/12 01:33:27;;;;;;;4.03;2.90;;;;;;;9.26;82.60;95311.69;5042678;28;20260;-65
2023/05/12 01:35:54;;;;;;;3.60;3.30;;;;;;;9.32;83.35;95316.59;5041898;28;20295;-64
2023/05/12 01:38:21;;;;;;;2.85;2.65;;;;;;;9.26;83.04;95305.78;5042904;28;20323;-64
2023/05/12 01:40:48;;;;;;;4.20;3.53;;;;;;;9.16;82.85;95312.75;5042133;28;20214;-64
2023/05/12 01:43:16;;;;;;;3.38;3.10;;;;;;;9.19;83.61;95300.00;5043287;28;20990;-65
2023/05/12 01:45:43;;;;;;;4.10;3.78;;;;;;;9.15;84.27;95308.59;5042268;28;20298;-65
2023/05/12 01:48:09;;;;;;;4.97;3.10;;;;;;;9.17;84.75;95311.88;5043129;28;20340;-64
2023/05/12 01:50:36;;;;;;;4.80;3.42;;;;;;;9.06;83.74;95313.88;5042774;28;20301;-65
2023/05/12 01:53:03;;;;;;;3.53;3.33;;;;;;;9.03;84.76;95314.75;5042495;28;20206;-63
2023/05/12 01:55:29;;;;;;;3.55;3.22;;;;;;;8.97;84.63;95314.06;5041175;28;20692;-65
2023/05/12 01:57:56;;;;;;;7.57;3.42;;;;;;;8.90;85.58;95313.41;5042507;28;20300;-63
2023/05/12 02:00:24;;;;;;;5.28;3.42;;;;;;;8.91;85.91;95307.44;5042761;28;20539;-64
2023/05/12 02:02:51;;;;;;;3.78;3.50;;;;;;;8.89;85.76;95310.91;5042871;28;20283;-65
2023/05/12 02:05:17;;;;;;;5.47;4.15;;;;;;;8.82;86.73;95307.66;5041462;28;20305;-67
2023/05/12 02:07:44;;;;;;;4.53;4.13;;;;;;;8.81;86.85;95311.06;5042190;28;20293;-70
2023/05/12 02:10:11;;;;;;;4.53;4.22;;;;;;;8.78;87.92;95311.97;5041523;28;20926;-62
2023/05/12 02:12:37;;;;;;;6.82;4.88;;;;;;;8.84;87.74;95309.28;5041529;28;20206;-64
2023/05/12 02:15:05;;;;;;;5.60;4.63;;;;;;;8.81;88.38;95304.28;5041559;28;20684;-66
2023/05/12 02:17:34;;;;;;;7.55;4.85;;;;;;;8.86;87.79;95305.03;5042041;28;20229;-66
2023/05/12 02:20:00;;;;;;;4.35;4.05;;;;;;;8.75;88.21;95301.06;5041635;28;20272;-64
2023/05/12 02:22:27;;;;;;;4.95;4.55;;;;;;;8.82;88.07;95313.56;5040696;28;20293;-65
2023/05/12 02:24:54;;;;;;;5.00;4.53;;;;;;;8.81;88.74;95314.44;5041495;28;20269;-64
2023/05/12 02:27:21;;;;;;;7.53;3.83;;;;;;;8.72;88.41;95317.16;5042347;28;20268;-65
2023/05/12 02:29:47;;;;;;;4.68;4.38;;;;;;;8.71;88.42;95302.81;5040575;28;20291;-64
2023/05/12 02:32:14;;;;;;;3.30;3.10;;;;;;;8.60;88.66;95302.25;5041858;28;20750;-64
2023/05/12 02:34:42;;;;;;;3.95;3.55;;;;;;;8.55;88.42;95301.50;5041694;28;20249;-64
2023/05/12 02:37:09;;;;;;;4.13;2.97;;;;;;;8.47;88.20;95300.84;5042073;28;20316;-65
2023/05/12 02:39:36;;;;;;;3.72;3.42;;;;;;;8.43;88.21;95301.75;5041103;28;20818;-65
2023/05/12 02:42:02;;;;;;;3.80;3.60;;;;;;;8.49;89.00;95302.47;5040402;28;20238;-65
2023/05/12 02:44:29;;;;;;;6.55;3.38;;;;;;;8.45;88.71;95302.56;5040529;28;20242;-64
2023/05/12 02:46:56;;;;;;;7.65;3.40;;;;;;;8.26;89.01;95306.31;5039338;28;20248;-66
2023/05/12 02:49:23;;;;;;;9.05;4.40;;;;;;;8.39;90.12;95302.72;5040157;28;20206;-65
2023/05/12 02:51:51;;;;;;;4.35;4.00;;;;;;;8.31;89.82;95307.91;5039732;28;20376;-65
2023/05/12 02:54:18;;;;;;;3.30;3.10;;;;;;;8.28;90.67;95307.13;5039076;28;20237;-64
2023/05/12 02:56:44;;;;;;;4.22;3.92;;;;;;;8.19;90.59;95303.91;5040251;28;20344;-66
2023/05/12 02:59:11;;;;;;;5.80;4.68;;;;;;;8.16;90.76;95311.59;5041009;28;20301;-64
2023/05/12 03:01:38;;;;;;;4.93;4.15;;;;;;;8.17;91.62;95309.88;5041925;28;20206;-67
2023/05/12 03:04:05;;;;;;;4.90;4.50;;;;;;;8.18;91.88;95314.91;5040684;28;20290;-64
2023/05/12 03:06:32;;;;;;;5.47;4.72;;;;;;;8.22;91.85;95312.31;5041491;28;20248;-63
2023/05/12 03:09:00;;;;;;;4.53;4.22;;;;;;;8.17;91.12;95312.41;5042237;28;20214;-66
2023/05/12 03:11:26;;;;;;;5.60;4.72;;;;;;;8.23;91.48;95313.97;5041961;28;20289;-64
2023/05/12 03:13:53;;;;;;;5.10;4.72;;;;;;;8.20;90.94;95310.63;5040794;28;20293;-66
2023/05/12 03:16:20;;;;;;;6.75;5.47;;;;;;;8.20;91.31;95318.22;5041823;28;20257;-64
2023/05/12 03:18:46;;;;;;;5.28;4.88;;;;;;;8.17;91.74;95313.22;5041575;28;20256;-65
2023/05/12 03:21:13;;;;;;;6.13;5.10;;;;;;;8.14;91.21;95320.09;5040921;28;20293;-62
2023/05/12 03:23:39;;;;;;;5.43;4.90;;;;;;;8.19;91.29;95318.25;5040862;28;20325;-65
2023/05/12 03:26:08;;;;;;;6.07;5.55;;;;;;;8.20;91.67;95320.75;5041838;28;20296;-64
2023/05/12 03:28:34;;;;;;;6.07;5.45;;;;;;;8.21;91.59;95316.53;5041508;28;20263;-66
2023/05/12 03:31:01;;;;;;;6.70;5.63;;;;;;;8.27;92.23;95323.19;5042051;28;20206;-65
2023/05/12 03:33:28;;;;;;;7.20;6.55;;;;;;;8.24;91.74;95313.94;5041838;28;20229;-65
2023/05/12 03:35:55;;;;;;;8.13;6.30;;;;;;;8.41;91.86;95323.78;5041132;28;20213;-62
2023/05/12 03:38:22;;;;;;;7.25;6.07;;;;;;;8.53;91.11;95328.56;5041058;28;20210;-64
2023/05/12 03:40:51;;;;;;;7.35;6.55;;;;;;;8.41;90.66;95331.38;5040433;28;20301;-66
2023/05/12 03:43:20;;;;;;;7.40;5.65;;;;;;;8.37;90.39;95330.59;5041210;28;20207;-63
2023/05/12 03:45:46;;;;;;;6.43;5.85;;;;;;;8.34;91.29;95339.97;5040869;28;20206;-64
2023/05/12 03:48:13;;;;;;;9.63;6.47;;;;;;;8.26;91.18;95340.06;5041478;28;20202;-64
2023/05/12 03:50:39;;;;;;;8.15;7.38;;;;;;;8.13;92.08;95321.78;5040669;28;20770;-61
2023/05/12 03:53:06;;;;;;;7.10;6.40;;;;;;;8.28;91.07;95337.50;5040777;28;20293;-64
2023/05/12 03:55:33;;;;;;;8.43;6.50;;;;;;;8.35;91.61;95339.94;5041433;28;20309;-64
2023/05/12 03:57:59;;;;;;;8.13;7.25;;;;;;;8.33;91.80;95333.22;5041462;28;20784;-66
2023/05/12 04:00:28;;;;;;;7.60;6.47;;;;;;;8.45;91.73;95338.03;5044138;28;20336;-65
2023/05/12 04:02:54;;;;;;;8.80;7.30;;;;;;;8.46;91.16;95338.00;5045017;28;20289;-66
2023/05/12 04:05:21;;;;;;;7.43;6.80;;;;;;;8.44;90.99;95332.13;5044602;28;20203;-65
2023/05/12 04:07:48;;;;;;;9.20;7.13;;;;;;;8.59;90.19;95343.66;5044539;28;20293;-62
2023/05/12 04:10:14;;;;;;;6.78;6.25;;;;;;;8.62;90.22;95351.19;5044809;28;20496;-63
2023/05/12 04:12:41;;;;;;;9.05;7.22;;;;;;;8.64;89.76;95341.84;5044493;28;20707;-65
2023/05/12 04:15:08;;;;;;;7.05;6.45;;;;;;;8.61;89.54;95351.22;5043065;28;20344;-63
2023/05/12 04:17:36;;;;;;;11.80;6.35;;;;;;;8.66;89.28;95354.50;5045442;28;20308;-64
2023/05/12 04:20:03;;;;;;;6.50;5.93;;;;;;;8.79;88.93;95349.09;5043074;28;20285;-66
2023/05/12 04:22:30;;;;;;;5.97;5.15;;;;;;;8.73;88.64;95356.84;5044342;28;20288;-66
2023/05/12 04:24:57;;;;;;;6.15;5.65;;;;;;;8.74;88.23;95343.31;5042897;28;20241;-65
2023/05/12 04:27:23;;;;;;;5.72;5.22;;;;;;;8.80;88.53;95344.88;5043932;28;20293;-63
2023/05/12 04:29:50;;;;;;;5.95;5.45;;;;;;;8.84;88.49;95349.84;5043384;28;20283;-65
2023/05/12 04:32:17;;;;;;;6.45;5.88;;;;;;;8.82;88.26;95349.03;5045101;28;20202;-65
2023/05/12 04:34:46;;;;;;;8.35;6.80;;;;;;;8.98;87.56;95349.53;5044529;28;20206;-66
2023/05/12 04:37:13;;;;;;;8.10;5.93;;;;;;;8.97;87.19;95347.03;5044150;28;20231;-66
2023/05/12 04:39:40;;;;;;;6.38;5.88;;;;;;;8.93;87.33;95347.94;5042278;28;20301;-66
2023/05/12 04:42:07;;;;;;;6.10;5.50;;;;;;;8.97;87.28;95354.63;5044029;28;20202;-65
2023/05/12 04:44:33;;;;;;;6.82;6.13;;;;;;;8.90;87.77;95348.88;5043386;28;20287;-64
2023/05/12 04:47:00;;;;;;;5.35;4.85;;;;;;;8.84;87.30;95354.91;5043422;28;20299;-63
2023/05/12 04:49:26;;;;;;;9.57;5.18;;;;;;;8.82;88.04;95351.56;5042916;28;20293;-64
2023/05/12 04:51:55;;;;;;;6.35;5.85;;;;;;;8.95;87.69;95347.06;5043945;28;20910;-65
2023/05/12 04:54:21;;;;;;;7.15;4.78;;;;;;;8.89;87.10;95342.16;5043858;28;20298;-63
2023/05/12 04:56:48;;;;;;;6.18;5.68;;;;;;;8.78;87.74;95360.09;5043378;28;20305;-66
2023/05/12 04:59:15;;;;;;;6.00;5.60;;;;;;;8.91;87.93;95354.78;5042535;28;20676;-68
2023/05/12 05:01:42;;;;;;;5.93;5.43;;;;;;;8.90;87.78;95348.88;5043483;28;20272;-65
2023/05/12 05:04:08;;;;;;;6.63;6.07;;;;;;;9.04;88.52;95356.16;5043139;28;20257;-64
2023/05/12 05:06:35;;;;;;;6.00;5.50;;;;;;;9.03;86.93;95354.50;5043912;28;20245;-64
2023/05/12 05:09:03;;;;;;;6.40;5.90;;;;;;;9.01;87.68;95357.06;5041955;28;22331;-65
2023/05/12 05:11:30;;;;;;;6.68;6.20;;;;;;;8.99;87.39;95357.97;5044518;28;20198;-65
2023/05/12 05:13:56;;;;;;;6.93;6.22;;;;;;;9.03;87.47;95364.63;5043591;28;20329;-65
2023/05/12 05:16:24;;;;;;;5.30;4.90;;;;;;;8.97;87.34;95352.91;5043192;28;20264;-67
2023/05/12 05:18:50;;;;;;;6.25;5.70;;;;;;;9.17;87.07;95363.44;5043426;28;20231;-63
2023/05/12 05:21:17;;;;;;;6.22;5.72;;;;;;;9.22;86.95;95360.78;5044201;28;20269;-63
2023/05/12 05:23:44;;;;;;;6.95;6.35;;;;;;;9.26;86.76;95362.41;5042901;28;20230;-65
2023/05/12 05:26:12;;;;;;;9.63;5.18;;;;;;;9.24;85.85;95359.06;5043040;28;20264;-65
2023/05/12 05:28:39;;;;;;;6.45;5.72;;;;;;;9.40;85.55;95374.75;5042777;28;21287;-65
2023/05/12 05:31:05;;;;;;;6.00;5.53;;;;;;;9.35;86.25;95382.47;5043361;28;21088;-64
2023/05/12 05:33:32;;;;;;;6.63;5.28;;;;;;;9.37;85.83;95380.75;5041107;28;20317;-63
2023/05/12 05:35:59;;;;;;;6.25;5.75;;;;;;;9.47;85.65;95373.72;5042381;28;20776;-62
2023/05/12 05:38:26;;;;;;;6.20;5.70;;;;;;;9.47;85.57;95366.94;5042678;28;20319;-67
2023/05/12 05:40:52;;;;;;;6.13;5.63;;;;;;;9.59;85.15;95372.59;5042489;28;20672;-65
2023/05/12 05:43:20;;;;;;;6.00;5.50;;;;;;;9.69;85.21;95366.41;5042626;28;20293;-64
2023/05/12 05:45:48;;;;;;;6.18;5.32;;;;;;;9.63;84.98;95364.06;5041991;28;20834;-63
2023/05/12 05:48:15;;;;;;;5.28;4.85;;;;;;;9.59;84.12;95370.06;5043743;28;20218;-64
2023/05/12 05:50:42;;;;;;;8.43;5.43;;;;;;;9.50;84.35;95361.81;5042204;28;20317;-65
2023/05/12 05:53:08;;;;;;;6.97;6.32;;;;;;;9.51;84.83;95368.53;5042619;28;20255;-66
2023/05/12 05:55:35;;;;;;;8.15;6.53;;;;;;;9.61;84.83;95368.31;5041581;28;20285;-68
2023/05/12 05:58:01;;;;;;;6.45;5.93;;;;;;;9.69;84.02;95366.41;5042672;28;20340;-66
2023/05/12 06:00:29;;;;;;;9.88;7.40;;;;;;;9.72;84.22;95369.72;5041858;28;20333;-63
2023/05/12 06:02:56;;;;;;;6.40;5.72;;;;;;;9.65;83.93;95375.00;5041512;28;20237;-65
2023/05/12 06:05:23;;;;;;;6.38;5.38;;;;;;;9.55;83.74;95367.59;5041589;28;20752;-65
2023/05/12 06:07:49;;;;;;;5.95;5.30;;;;;;;9.66;84.10;95366.47;5042234;28;20206;-66
2023/05/12 06:10:16;;;;;;;7.55;5.50;;;;;;;9.63;83.51;95374.19;5041930;28;20291;-66
2023/05/12 06:12:43;;;;;;;5.60;5.20;;;;;;;9.65;83.55;95375.00;5042375;28;20241;-68
2023/05/12 06:15:10;;;;;;;8.55;5.32;;;;;;;9.80;83.30;95384.75;5042215;28;20775;-62
2023/05/12 06:17:38;;;;;;;8.02;6.07;;;;;;;9.93;83.39;95382.72;5041783;28;20746;-64
2023/05/12 06:20:06;;;;;;;6.97;6.43;;;;;;;9.83;82.84;95382.97;5042146;28;20297;-65
2023/05/12 06:22:33;;;;;;;6.13;5.13;;;;;;;9.83;83.16;95379.59;5042155;28;20202;-65
2023/05/12 06:25:00;;;;;;;9.15;6.75;;;;;;;9.99;82.71;95387.66;5041419;28;20251;-65
2023/05/12 06:27:27;;;;;;;6.38;5.10;;;;;;;9.89;82.26;95384.53;5042282;28;20341;-65
2023/05/12 06:29:54;;;;;;;5.18;4.68;;;;;;;9.88;82.67;95388.78;5040690;28;20790;-64
2023/05/12 06:32:20;;;;;;;9.68;5.00;;;;;;;9.86;82.36;95389.69;5041828;28;20297;-65
2023/05/12 06:34:48;;;;;;;5.10;4.70;;;;;;;10.03;82.18;95392.59;5041007;28;20712;-65
2023/05/12 06:37:15;;;;;;;7.85;5.53;;;;;;;10.02;81.61;95401.09;5041663;28;20322;-64
2023/05/12 06:39:42;;;;;;;5.13;4.65;;;;;;;10.00;82.14;95391.84;5041379;28;20293;-65
2023/05/12 06:42:10;;;;;;;7.00;6.25;;;;;;;9.92;81.91;95397.13;5040830;28;20214;-65
2023/05/12 06:44:36;;;;;;;9.63;6.03;;;;;;;10.15;81.42;95399.88;5041138;28;20680;-63
2023/05/12 06:47:03;;;;;;;6.03;5.43;;;;;;;10.18;80.23;95397.28;5039516;28;20760;-64
2023/05/12 06:49:34;;;;;;;12.30;5.10;;;;;;;10.11;80.36;95395.78;5039863;28;20210;-64
2023/05/12 06:52:02;;;;;;;6.13;5.55;;;;;;;10.13;80.32;95401.66;5040356;28;20308;-65
2023/05/12 06:54:29;;;;;;;5.75;5.25;;;;;;;10.04;80.38;95404.44;5040696;28;20387;-63
2023/05/12 06:56:55;;;;;;;14.93;5.65;;;;;;;10.19;79.90;95410.84;5041147;28;20290;-65
2023/05/12 06:59:22;;;;;;;5.97;5.38;;;;;;;10.20;79.41;95400.63;5041302;28;20784;-65
2023/05/12 07:01:49;;;;;;;7.68;5.88;;;;;;;10.27;79.68;95400.47;5041276;28;20424;-66
2023/05/12 07:04:15;;;;;;;6.82;5.90;;;;;;;10.50;78.86;95398.13;5040260;28;20211;-63
2023/05/12 07:06:42;;;;;;;5.60;5.00;;;;;;;10.37;78.28;95404.44;5041005;28;20206;-65
2023/05/12 07:09:10;;;;;;;5.22;4.82;;;;;;;10.23;78.06;95402.25;5041467;28;20222;-64
2023/05/12 07:11:37;;;;;;;12.93;4.90;;;;;;;10.14;78.87;95403.34;5041336;28;20289;-67
2023/05/12 07:14:03;;;;;;;5.70;5.20;;;;;;;10.14;78.78;95403.34;5039715;28;20234;-65
2023/05/12 07:16:31;;;;;;;5.93;5.43;;;;;;;10.25;79.07;95402.22;5040089;28;20242;-65
2023/05/12 07:18:57;;;;;;;6.68;5.57;;;;;;;10.36;78.37;95405.31;5041597;28;20661;-65
2023/05/12 07:21:24;;;;;;;12.80;5.40;;;;;;;10.31;78.94;95407.16;5041645;28;20657;-65
2023/05/12 07:23:51;;;;;;;5.72;5.20;;;;;;;10.40;78.66;95406.88;5041097;28;20312;-65
2023/05/12 07:26:20;;;;;;;6.03;5.40;;;;;;;10.43;77.91;95404.25;5042003;28;20248;-64
2023/05/12 07:28:46;;;;;;;6.55;5.80;;;;;;;10.35;79.46;95401.94;5041427;28;20234;-64
2023/05/12 07:31:13;;;;;;;10.93;5.63;;;;;;;10.48;79.00;95399.88;5040596;28;20359;-65
2023/05/12 07:33:40;;;;;;;10.57;5.53;;;;;;;10.55;79.31;95399.69;5040874;28;20741;-65
2023/05/12 07:36:07;;;;;;;7.25;6.28;;;;;;;10.76;79.27;95405.88;5041115;28;20666;-66
2023/05/12 07:38:34;;;;;;;11.85;5.72;;;;;;;10.72;78.63;95406.00;5040412;28;20690;-63
2023/05/12 07:41:01;;;;;;;6.35;5.72;;;;;;;10.47;79.01;95408.38;5039688;28;20670;-65
2023/05/12 07:43:29;;;;;;;7.68;4.78;;;;;;;10.42;78.78;95412.75;5039615;28;20356;-67
2023/05/12 07:45:58;;;;;;;4.80;4.50;;;;;;;10.29;78.57;95419.06;5041063;28;20654;-64
2023/05/12 07:48:24;;;;;;;4.90;4.40;;;;;;;10.34;79.34;95419.78;5040621;28;20267;-67
2023/05/12 07:50:51;;;;;;;6.40;4.35;;;;;;;10.44;78.87;95413.53;5041176;28;20305;-63
2023/05/12 07:53:18;;;;;;;5.38;4.93;;;;;;;10.28;79.07;95417.38;5039790;28;20272;-66
2023/05/12 07:55:45;;;;;;;5.57;5.18;;;;;;;10.40;79.03;95411.97;5040939;28;20778;-65
2023/05/12 07:58:12;;;;;;;5.07;4.53;;;;;;;10.72;79.05;95409.38;5040320;28;20327;-64
2023/05/12 08:00:40;;;;;;;6.10;5.22;;;;;;;10.96;77.02;95399.34;5039705;28;20213;-65
2023/05/12 08:03:07;;;;;;;7.70;4.97;;;;;;;11.37;76.07;95398.94;5040826;28;20214;-66
2023/05/12 08:05:34;;;;;;;8.88;5.60;;;;;;;11.82;74.75;95385.66;5041040;28;20214;-64
2023/05/12 08:08:00;;;;;;;8.68;5.32;;;;;;;12.29;71.80;95399.31;5041357;28;20741;-64
2023/05/12 08:10:28;;;;;;;5.40;4.97;;;;;;;12.56;71.83;95394.97;5040328;28;20379;-65
2023/05/12 08:12:55;;;;;;;5.57;4.95;;;;;;;12.58;69.67;95404.22;5040127;28;20227;-65
2023/05/12 08:15:22;;;;;;;5.78;5.45;;;;;;;12.45;70.74;95402.16;5040265;28;20222;-65
2023/05/12 08:17:50;;;;;;;5.50;5.00;;;;;;;12.71;70.34;95406.31;5040116;28;20727;-63
2023/05/12 08:20:17;;;;;;;6.57;4.95;;;;;;;13.00;68.23;95400.13;5041162;28;20842;-63
2023/05/12 08:22:46;;;;;;;10.07;5.43;;;;;;;13.26;67.20;95400.00;5040138;28;20659;-66
2023/05/12 08:25:13;;;;;;;5.28;4.90;;;;;;;13.15;66.67;95404.66;5039094;28;21261;-65
2023/05/12 08:27:40;;;;;;;7.55;5.57;;;;;;;13.08;67.84;95405.78;5039635;28;20709;-65
2023/05/12 08:30:07;;;;;;;5.43;4.93;;;;;;;13.05;67.47;95400.81;5040411;28;20285;-64
2023/05/12 08:32:34;;;;;;;6.30;5.70;;;;;;;12.89;68.52;95397.97;5039712;28;20289;-65
2023/05/12 08:35:02;;;;;;;7.72;5.43;;;;;;;12.88;67.96;95402.25;5040749;28;20298;-65
2023/05/12 08:37:29;;;;;;;6.38;5.78;;;;;;;12.98;67.92;95409.56;5038102;28;20293;-67
2023/05/12 08:39:56;;;;;;;5.65;5.20;;;;;;;12.98;67.55;95402.75;5040736;28;20230;-67
2023/05/12 08:42:31;;;;;;;5.68;5.20;;;;;;;12.89;66.75;95411.56;5038989;28;20214;-67
2023/05/12 08:44:59;;;;;;;5.28;4.82;;;;;;;13.11;66.62;95405.69;5040879;28;20221;-63
2023/05/12 08:47:27;;;;;;;6.70;5.20;;;;;;;13.03;66.49;95402.59;5042912;28;20710;-66
2023/05/12 08:49:59;;;;;;;5.57;5.07;;;;;;;12.96;66.90;95394.31;5043082;28;20313;-67
2023/05/12 08:52:28;;;;;;;4.72;4.32;;;;;;;12.78;66.74;95395.84;5042034;28;20217;-64
2023/05/12 08:54:55;;;;;;;5.95;5.22;;;;;;;12.97;66.52;95406.19;5042680;28;20305;-63
2023/05/12 08:57:23;;;;;;;14.00;5.07;;;;;;;13.06;66.08;95407.56;5042998;28;20206;-66
2023/05/12 08:59:51;;;;;;;7.03;4.68;;;;;;;13.22;65.75;95398.47;5043881;28;20313;-64
2023/05/12 09:02:20;;;;;;;9.68;5.13;;;;;;;13.13;65.62;95399.59;5043339;28;20289;-64
2023/05/12 09:04:47;;;;;;;8.55;4.78;;;;;;;13.08;65.14;95400.69;5043006;28;20209;-65
2023/05/12 09:07:14;;;;;;;5.43;5.03;;;;;;;13.03;65.07;95400.03;5042750;28;20333;-66
2023/05/12 09:09:44;;;;;;;6.70;4.65;;;;;;;13.03;65.24;95405.97;5044371;28;20209;-65
2023/05/12 09:12:15;;;;;;;6.03;4.88;;;;;;;13.11;65.35;95390.38;5043617;28;20322;-66
2023/05/12 09:14:44;;;;;;;9.75;4.28;;;;;;;13.20;64.31;95390.03;5043247;28;22023;-65
2023/05/12 09:17:11;;;;;;;4.90;4.57;;;;;;;13.12;64.76;95394.56;5042985;28;20760;-64
2023/05/12 09:19:38;;;;;;;6.95;4.30;;;;;;;12.91;64.47;95391.94;5042547;28;20230;-65
2023/05/12 09:22:05;;;;;;;7.68;4.88;;;;;;;12.89;65.18;95373.31;5043281;28;20296;-64
2023/05/12 09:24:36;;;;;;;8.45;4.38;;;;;;;13.15;64.50;95381.69;5042566;28;21087;-65
2023/05/12 09:27:04;;;;;;;6.45;4.07;;;;;;;13.25;63.70;95375.38;5043270;28;20206;-65
2023/05/12 09:29:32;;;;;;;7.40;4.05;;;;;;;13.55;62.26;95371.63;5042703;28;20783;-68
2023/05/12 09:32:00;;;;;;;5.60;3.90;;;;;;;13.53;63.03;95375.97;5043751;28;20237;-65
2023/05/12 09:34:29;;;;;;;8.75;4.00;;;;;;;13.68;62.14;95363.44;5042353;28;20283;-66
2023/05/12 09:36:56;;;;;;;3.42;3.13;;;;;;;13.53;61.60;95375.13;5043700;28;21354;-65
2023/05/12 09:39:23;;;;;;;5.32;3.75;;;;;;;13.34;62.72;95375.03;5042636;28;20226;-63
2023/05/12 09:41:50;;;;;;;4.45;4.05;;;;;;;13.47;62.31;95373.66;5043433;28;20202;-65
2023/05/12 09:44:19;;;;;;;9.30;3.67;;;;;;;13.55;61.88;95379.28;5043135;28;20204;-66
2023/05/12 09:46:46;;;;;;;4.53;3.83;;;;;;;13.47;62.79;95380.47;5042407;28;20229;-64
2023/05/12 09:49:17;;;;;;;4.47;4.07;;;;;;;13.43;62.42;95374.66;5042043;28;20206;-64
2023/05/12 09:51:44;;;;;;;4.93;3.85;;;;;;;13.55;62.90;95363.97;5042609;28;20225;-66
2023/05/12 09:54:11;;;;;;;3.85;3.55;;;;;;;14.09;61.40;95365.13;5041225;28;20284;-64
2023/05/12 09:56:38;;;;;;;4.18;3.88;;;;;;;14.27;60.54;95372.00;5042085;28;20317;-65
2023/05/12 09:59:06;;;;;;;5.18;4.78;;;;;;;14.27;60.78;95361.78;5041603;28;20222;-65
2023/05/12 10:01:34;;;;;;;4.85;4.45;;;;;;;14.57;60.17;95371.63;5042136;28;20199;-69
2023/05/12 10:04:02;;;;;;;7.43;4.32;;;;;;;14.33;60.48;95373.47;5042161;28;20198;-66
2023/05/12 10:06:32;;;;;;;7.30;5.03;;;;;;;14.10;61.10;95365.97;5042071;28;20213;-66
2023/05/12 10:09:05;;;;;;;6.15;5.55;;;;;;;14.30;61.31;95364.22;5041913;28;20221;-65
2023/05/12 10:11:32;;;;;;;13.55;5.13;;;;;;;14.81;59.49;95365.41;5042847;28;20872;-66
2023/05/12 10:14:00;;;;;;;8.45;5.32;;;;;;;14.85;58.97;95356.66;5042019;28;20217;-65
2023/05/12 10:16:28;;;;;;;5.20;4.85;;;;;;;15.09;58.05;95356.47;5041972;28;20705;-67
2023/05/12 10:18:56;;;;;;;4.47;4.07;;;;;;;14.83;57.95;95357.66;5043058;28;20379;-69
2023/05/12 10:21:24;;;;;;;4.82;4.20;;;;;;;14.94;58.02;95358.81;5042584;28;20294;-66
2023/05/12 10:23:54;;;;;;;5.13;4.72;;;;;;;15.09;57.98;95356.47;5040642;28;20743;-66
2023/05/12 10:26:22;;;;;;;4.88;4.47;;;;;;;15.48;57.48;95369.94;5042521;28;20307;-66
2023/05/12 10:28:49;;;;;;;10.20;4.38;;;;;;;15.50;56.69;95354.50;5041915;28;20252;-65
2023/05/12 10:31:16;;;;;;;4.50;4.10;;;;;;;15.79;56.01;95353.13;5042251;28;20329;-64
2023/05/12 10:33:43;;;;;;;5.65;4.80;;;;;;;16.36;55.20;95351.06;5041244;28;20743;-64
2023/05/12 10:36:20;;;;;;;12.27;4.50;;;;;;;16.70;53.39;95340.75;5041220;28;20805;-65
2023/05/12 10:38:49;;;;;;;7.55;4.43;;;;;;;16.33;53.17;95345.19;5041538;28;20217;-65
2023/05/12 10:41:16;;;;;;;4.35;3.95;;;;;;;16.55;53.21;95342.34;5042020;28;20214;-66
2023/05/12 10:43:48;;;;;;;4.85;3.90;;;;;;;16.92;51.87;95340.41;5041631;28;20581;-65
2023/05/12 10:46:19;;;;;;;4.32;3.75;;;;;;;17.04;51.72;95338.94;5039991;28;20242;-67
2023/05/12 10:48:54;;;;;;;5.90;3.85;;;;;;;16.75;51.66;95343.06;5041124;28;20289;-66
2023/05/12 10:51:25;;;;;;;3.72;3.50;;;;;;;16.85;51.65;95337.34;5040911;28;20318;-64
2023/05/12 10:53:53;;;;;;;3.65;3.42;;;;;;;16.61;51.65;95336.88;5039389;28;20198;-65
2023/05/12 10:56:25;;;;;;;3.92;3.63;;;;;;;16.28;53.43;95334.38;5039718;28;20202;-65
2023/05/12 10:59:11;;;;;;;4.22;3.92;;;;;;;16.58;52.71;95336.25;5039542;28;20316;-67
2023/05/12 11:01:38;;;;;;;3.92;3.63;;;;;;;16.63;52.08;95329.09;5039940;28;20206;-64
2023/05/12 11:04:12;;;;;;;3.72;3.42;;;;;;;16.48;52.21;95335.06;5040525;28;20324;-66
2023/05/12 11:06:42;;;;;;;4.57;4.28;;;;;;;16.73;52.67;95332.06;5040531;28;20226;-64
2023/05/12 11:09:09;;;;;;;4.40;4.00;;;;;;;17.23;52.11;95327.56;5041522;28;20256;-67
2023/05/12 11:11:36;;;;;;;4.13;3.72;;;;;;;17.30;51.08;95321.19;5041419;28;20586;-66
2023/05/12 11:14:03;;;;;;;5.07;4.57;;;;;;;17.33;51.13;95327.88;5041136;28;20685;-65
2023/05/12 11:16:30;;;;;;;6.72;4.40;;;;;;;17.26;51.45;95340.25;5040978;28;20230;-65
2023/05/12 11:19:03;;;;;;;5.70;3.85;;;;;;;16.88;51.25;95339.75;5040668;28;21164;-66
2023/05/12 11:21:30;;;;;;;4.65;4.22;;;;;;;16.15;53.15;95333.31;5041481;28;20214;-66
2023/05/12 11:24:00;;;;;;;5.53;4.10;;;;;;;16.33;53.65;95332.38;5040742;28;20353;-65
2023/05/12 11:26:29;;;;;;;5.35;4.07;;;;;;;16.50;53.08;95343.50;5040347;28;20711;-67
2023/05/12 11:28:57;;;;;;;4.63;4.18;;;;;;;16.34;53.18;95333.19;5040913;28;20315;-64
2023/05/12 11:31:24;;;;;;;5.53;4.85;;;;;;;16.64;53.11;95343.63;5040531;28;20337;-66
2023/05/12 11:34:01;;;;;;;7.20;4.13;;;;;;;16.51;52.75;95335.72;5040660;28;20705;-65
2023/05/12 11:36:28;;;;;;;3.58;3.28;;;;;;;16.36;52.23;95335.69;5039697;28;20343;-66
2023/05/12 11:38:55;;;;;;;3.70;3.50;;;;;;;16.39;52.77;95346.63;5040962;28;20328;-66